Aberdeen, New Jersey
Current Conditions -  °F | °C
As of 7:35 PM on Wednesday 26 Nov 2014 (Local Time) from KLDJ Reporting Station
Drizzle Drizzle  
Wind Chill: 29°   Ceiling: 2000
Heat Index: 39°   Visibility: 3mi
Dew Point: 36°   Wind: 17mph
Humidity: 91%   Direction: 330°NNW
Pressure: 29.83"   Gusts: 24mph
Location:  40.4118°N, 74.2499°W
Report Text: KLDJ 270035Z AUTO 33015G21KT 3SM DZ SCT008 SCT014 OVC020 04/02 A2983 RMK AO2 P0001 T00370024
Loading
Personal Weather Stations






























Interactive Weather Map New forecast layout! Learn more

10-Day Weather Forecast

Advertisements
Track Severe Weather on mobile